SBDN/PPB METAR and TAF weather

Enter ICAO airport designator
Station Type Date Time Source
SBDN METAR 2019/04/18 22:00 UTC NOAA

SBDN 182200Z 00000KT CAVOK 26/13 Q1012


Station Type Date Time Source
SBDN Decoded METAR 2019/04/18 22:00 UTC NOAA

Presidente Prudente, Brazil (SBDN) 22-07S 051-23W
Apr 18, 2019 - 06:00 PM EDT / 2019.04.18 2200 UTC
Wind: Calm:0
Visibility: greater than 7 mile(s):0
Temperature: 78 F (26 C)
Dew Point: 55 F (13 C)
Relative Humidity: 44%
Pressure (altimeter): 29.88 in. Hg (1012 hPa)
ob: SBDN 182200Z 00000KT CAVOK 26/13 Q1012
cycle: 22

Station Type Date Time Source
SBDN TAF 2019/04/18 18:30 UTC NOAA

TAF SBDN 181530Z 1818/1906 24006KT CAVOK TX33/1818Z TN21/1906Z
BECMG 1822/1824 12005KT
RMK PER

Example: see airport list